sensor_id;sensor_type;location;lat;lon;timestamp;P1;durP1;ratioP1;P2;durP2;ratioP2
10063;SDS011;5071;52.360;13.134;2023-08-08T00:03:53;4.50;;;2.00;;
10063;SDS011;5071;52.360;13.134;2023-08-08T00:08:57;2.80;;;1.50;;
10063;SDS011;5071;52.360;13.134;2023-08-08T00:13:59;3.13;;;1.90;;
10063;SDS011;5071;52.360;13.134;2023-08-08T00:19:01;2.47;;;1.40;;
10063;SDS011;5071;52.360;13.134;2023-08-08T00:24:05;2.57;;;1.77;;
10063;SDS011;5071;52.360;13.134;2023-08-08T00:29:07;2.97;;;1.70;;
10063;SDS011;5071;52.360;13.134;2023-08-08T00:34:09;4.50;;;2.10;;
10063;SDS011;5071;52.360;13.134;2023-08-08T00:39:13;3.43;;;1.90;;
10063;SDS011;5071;52.360;13.134;2023-08-08T00:44:15;4.00;;;1.80;;
10063;SDS011;5071;52.360;13.134;2023-08-08T00:49:17;11.23;;;2.30;;
10063;SDS011;5071;52.360;13.134;2023-08-08T00:54:21;3.93;;;1.80;;
10063;SDS011;5071;52.360;13.134;2023-08-08T00:59:23;5.23;;;1.70;;
10063;SDS011;5071;52.360;13.134;2023-08-08T01:04:26;5.33;;;2.20;;
10063;SDS011;5071;52.360;13.134;2023-08-08T01:09:32;5.80;;;2.13;;
10063;SDS011;5071;52.360;13.134;2023-08-08T01:14:40;3.53;;;1.90;;
10063;SDS011;5071;52.360;13.134;2023-08-08T01:19:44;4.87;;;1.87;;
10063;SDS011;5071;52.360;13.134;2023-08-08T01:24:47;2.63;;;1.50;;
10063;SDS011;5071;52.360;13.134;2023-08-08T01:29:52;3.37;;;1.90;;
10063;SDS011;5071;52.360;13.134;2023-08-08T01:34:54;4.30;;;1.80;;
10063;SDS011;5071;52.360;13.134;2023-08-08T01:39:57;5.80;;;1.40;;
10063;SDS011;5071;52.360;13.134;2023-08-08T01:45:01;4.23;;;1.63;;
10063;SDS011;5071;52.360;13.134;2023-08-08T01:50:03;1.97;;;1.50;;
10063;SDS011;5071;52.360;13.134;2023-08-08T01:55:08;3.43;;;1.97;;
10063;SDS011;5071;52.360;13.134;2023-08-08T02:00:11;5.17;;;1.53;;
10063;SDS011;5071;52.360;13.134;2023-08-08T02:05:14;3.03;;;1.20;;
10063;SDS011;5071;52.360;13.134;2023-08-08T02:10:18;3.73;;;1.73;;
10063;SDS011;5071;52.360;13.134;2023-08-08T02:15:20;3.27;;;2.30;;
10063;SDS011;5071;52.360;13.134;2023-08-08T02:20:22;2.37;;;1.73;;
10063;SDS011;5071;52.360;13.134;2023-08-08T02:25:25;2.87;;;1.43;;
10063;SDS011;5071;52.360;13.134;2023-08-08T02:30:28;2.53;;;1.80;;
10063;SDS011;5071;52.360;13.134;2023-08-08T02:35:29;3.00;;;1.60;;
10063;SDS011;5071;52.360;13.134;2023-08-08T02:40:33;3.47;;;1.97;;
10063;SDS011;5071;52.360;13.134;2023-08-08T02:45:35;4.20;;;2.00;;
10063;SDS011;5071;52.360;13.134;2023-08-08T02:50:38;6.97;;;1.83;;
10063;SDS011;5071;52.360;13.134;2023-08-08T02:55:41;5.87;;;1.77;;
10063;SDS011;5071;52.360;13.134;2023-08-08T03:00:43;7.13;;;2.10;;
10063;SDS011;5071;52.360;13.134;2023-08-08T03:05:45;4.27;;;1.80;;
10063;SDS011;5071;52.360;13.134;2023-08-08T03:10:49;4.47;;;2.00;;
10063;SDS011;5071;52.360;13.134;2023-08-08T03:15:51;2.33;;;1.70;;
10063;SDS011;5071;52.360;13.134;2023-08-08T03:20:53;2.57;;;2.00;;
10063;SDS011;5071;52.360;13.134;2023-08-08T03:25:56;3.43;;;1.87;;
10063;SDS011;5071;52.360;13.134;2023-08-08T03:30:59;3.63;;;2.07;;
10063;SDS011;5071;52.360;13.134;2023-08-08T03:36:01;3.93;;;2.03;;
10063;SDS011;5071;52.360;13.134;2023-08-08T03:41:05;4.43;;;2.10;;
10063;SDS011;5071;52.360;13.134;2023-08-08T03:46:07;3.07;;;1.93;;
10063;SDS011;5071;52.360;13.134;2023-08-08T03:51:09;4.00;;;1.97;;
10063;SDS011;5071;52.360;13.134;2023-08-08T03:56:12;4.33;;;1.80;;
10063;SDS011;5071;52.360;13.134;2023-08-08T04:01:14;5.33;;;2.47;;
10063;SDS011;5071;52.360;13.134;2023-08-08T04:06:16;2.87;;;1.90;;
10063;SDS011;5071;52.360;13.134;2023-08-08T04:11:20;5.73;;;2.30;;
10063;SDS011;5071;52.360;13.134;2023-08-08T04:16:22;3.47;;;1.80;;
10063;SDS011;5071;52.360;13.134;2023-08-08T04:21:27;4.70;;;1.97;;
10063;SDS011;5071;52.360;13.134;2023-08-08T04:26:30;2.80;;;1.70;;
10063;SDS011;5071;52.360;13.134;2023-08-08T04:31:32;3.07;;;1.77;;
10063;SDS011;5071;52.360;13.134;2023-08-08T04:36:34;3.60;;;1.77;;
10063;SDS011;5071;52.360;13.134;2023-08-08T04:41:37;4.30;;;2.37;;
10063;SDS011;5071;52.360;13.134;2023-08-08T04:46:39;2.43;;;1.60;;
10063;SDS011;5071;52.360;13.134;2023-08-08T04:51:42;1.70;;;1.40;;
10063;SDS011;5071;52.360;13.134;2023-08-08T04:56:46;1.87;;;1.27;;
10063;SDS011;5071;52.360;13.134;2023-08-08T05:01:48;2.23;;;1.40;;
10063;SDS011;5071;52.360;13.134;2023-08-08T05:06:50;2.13;;;1.33;;
10063;SDS011;5071;52.360;13.134;2023-08-08T05:11:53;2.13;;;1.23;;
10063;SDS011;5071;52.360;13.134;2023-08-08T05:16:55;1.97;;;1.40;;
10063;SDS011;5071;52.360;13.134;2023-08-08T05:21:58;2.23;;;1.30;;
10063;SDS011;5071;52.360;13.134;2023-08-08T05:27:03;3.83;;;1.50;;
10063;SDS011;5071;52.360;13.134;2023-08-08T05:32:06;1.50;;;1.40;;
10063;SDS011;5071;52.360;13.134;2023-08-08T05:37:08;2.73;;;1.33;;
10063;SDS011;5071;52.360;13.134;2023-08-08T05:42:20;2.70;;;1.63;;
10063;SDS011;5071;52.360;13.134;2023-08-08T05:47:22;3.13;;;1.90;;
10063;SDS011;5071;52.360;13.134;2023-08-08T05:52:24;3.73;;;1.30;;
10063;SDS011;5071;52.360;13.134;2023-08-08T05:57:27;3.73;;;1.50;;
10063;SDS011;5071;52.360;13.134;2023-08-08T06:02:29;3.20;;;1.20;;
10063;SDS011;5071;52.360;13.134;2023-08-08T06:07:30;4.80;;;1.80;;
10063;SDS011;5071;52.360;13.134;2023-08-08T06:12:34;2.03;;;1.60;;
10063;SDS011;5071;52.360;13.134;2023-08-08T06:17:36;4.17;;;1.80;;
10063;SDS011;5071;52.360;13.134;2023-08-08T06:22:37;3.17;;;2.00;;
10063;SDS011;5071;52.360;13.134;2023-08-08T06:27:41;2.57;;;1.60;;
10063;SDS011;5071;52.360;13.134;2023-08-08T06:32:43;4.37;;;2.63;;
10063;SDS011;5071;52.360;13.134;2023-08-08T06:37:45;2.70;;;1.50;;
10063;SDS011;5071;52.360;13.134;2023-08-08T06:42:49;3.23;;;1.67;;
10063;SDS011;5071;52.360;13.134;2023-08-08T06:47:51;3.77;;;2.00;;
10063;SDS011;5071;52.360;13.134;2023-08-08T06:52:53;2.90;;;1.53;;
10063;SDS011;5071;52.360;13.134;2023-08-08T06:57:56;4.90;;;1.90;;
10063;SDS011;5071;52.360;13.134;2023-08-08T07:02:58;2.43;;;1.50;;
10063;SDS011;5071;52.360;13.134;2023-08-08T07:08:03;4.77;;;1.43;;
10063;SDS011;5071;52.360;13.134;2023-08-08T07:13:06;2.33;;;1.60;;
10063;SDS011;5071;52.360;13.134;2023-08-08T07:18:08;3.83;;;1.73;;
10063;SDS011;5071;52.360;13.134;2023-08-08T07:23:11;4.67;;;1.93;;
10063;SDS011;5071;52.360;13.134;2023-08-08T07:28:14;2.90;;;1.97;;
10063;SDS011;5071;52.360;13.134;2023-08-08T07:33:16;4.10;;;1.67;;
10063;SDS011;5071;52.360;13.134;2023-08-08T07:38:19;1.87;;;1.30;;
10063;SDS011;5071;52.360;13.134;2023-08-08T07:43:22;2.73;;;1.70;;
10063;SDS011;5071;52.360;13.134;2023-08-08T07:48:24;2.83;;;1.60;;
10063;SDS011;5071;52.360;13.134;2023-08-08T07:53:26;2.83;;;1.70;;
10063;SDS011;5071;52.360;13.134;2023-08-08T07:58:29;1.67;;;1.57;;
10063;SDS011;5071;52.360;13.134;2023-08-08T08:03:30;2.00;;;1.33;;
10063;SDS011;5071;52.360;13.134;2023-08-08T08:08:32;2.47;;;1.70;;
10063;SDS011;5071;52.360;13.134;2023-08-08T08:13:36;2.00;;;1.70;;
10063;SDS011;5071;52.360;13.134;2023-08-08T08:18:38;3.33;;;1.63;;
10063;SDS011;5071;52.360;13.134;2023-08-08T08:23:40;2.23;;;1.43;;
10063;SDS011;5071;52.360;13.134;2023-08-08T08:28:43;2.67;;;1.67;;
10063;SDS011;5071;52.360;13.134;2023-08-08T08:33:45;3.00;;;1.70;;
10063;SDS011;5071;52.360;13.134;2023-08-08T08:38:47;2.97;;;1.60;;
10063;SDS011;5071;52.360;13.134;2023-08-08T08:43:51;1.80;;;1.20;;
10063;SDS011;5071;52.360;13.134;2023-08-08T08:48:54;2.93;;;1.53;;
10063;SDS011;5071;52.360;13.134;2023-08-08T08:53:56;2.37;;;1.60;;
10063;SDS011;5071;52.360;13.134;2023-08-08T08:59:01;2.53;;;1.70;;
10063;SDS011;5071;52.360;13.134;2023-08-08T09:04:03;2.60;;;1.40;;
10063;SDS011;5071;52.360;13.134;2023-08-08T09:09:08;1.70;;;1.30;;
10063;SDS011;5071;52.360;13.134;2023-08-08T09:14:21;2.78;;;1.40;;
10063;SDS011;5071;52.360;13.134;2023-08-08T09:19:24;2.63;;;1.27;;
10063;SDS011;5071;52.360;13.134;2023-08-08T09:24:26;3.13;;;1.38;;
10063;SDS011;5071;52.360;13.134;2023-08-08T09:29:29;3.10;;;1.48;;
10063;SDS011;5071;52.360;13.134;2023-08-08T09:34:32;3.50;;;1.58;;
10063;SDS011;5071;52.360;13.134;2023-08-08T09:39:34;3.25;;;1.38;;
10063;SDS011;5071;52.360;13.134;2023-08-08T09:44:38;2.50;;;1.17;;
10063;SDS011;5071;52.360;13.134;2023-08-08T09:49:40;2.28;;;1.50;;
10063;SDS011;5071;52.360;13.134;2023-08-08T09:54:42;2.28;;;1.48;;
10063;SDS011;5071;52.360;13.134;2023-08-08T09:59:46;3.97;;;1.73;;
10063;SDS011;5071;52.360;13.134;2023-08-08T10:04:50;2.78;;;1.63;;
10063;SDS011;5071;52.360;13.134;2023-08-08T10:09:54;1.83;;;1.33;;
10063;SDS011;5071;52.360;13.134;2023-08-08T10:14:57;4.03;;;1.73;;
10063;SDS011;5071;52.360;13.134;2023-08-08T10:20:00;4.57;;;2.33;;
10063;SDS011;5071;52.360;13.134;2023-08-08T10:25:03;3.83;;;1.80;;
10063;SDS011;5071;52.360;13.134;2023-08-08T10:30:08;3.43;;;1.93;;
10063;SDS011;5071;52.360;13.134;2023-08-08T10:35:11;3.03;;;1.90;;
10063;SDS011;5071;52.360;13.134;2023-08-08T10:40:16;2.47;;;2.27;;
10063;SDS011;5071;52.360;13.134;2023-08-08T10:45:21;3.90;;;2.00;;
10063;SDS011;5071;52.360;13.134;2023-08-08T10:50:31;3.37;;;2.00;;
10063;SDS011;5071;52.360;13.134;2023-08-08T10:55:34;2.37;;;1.67;;
10063;SDS011;5071;52.360;13.134;2023-08-08T11:00:39;3.70;;;2.10;;
10063;SDS011;5071;52.360;13.134;2023-08-08T11:05:41;4.57;;;1.90;;
10063;SDS011;5071;52.360;13.134;2023-08-08T11:10:43;4.87;;;2.20;;
10063;SDS011;5071;52.360;13.134;2023-08-08T11:15:46;3.07;;;2.00;;
10063;SDS011;5071;52.360;13.134;2023-08-08T11:20:49;4.10;;;2.70;;
10063;SDS011;5071;52.360;13.134;2023-08-08T11:25:54;3.20;;;2.37;;
10063;SDS011;5071;52.360;13.134;2023-08-08T11:31:01;3.37;;;2.80;;
10063;SDS011;5071;52.360;13.134;2023-08-08T11:36:03;3.93;;;2.30;;
10063;SDS011;5071;52.360;13.134;2023-08-08T11:41:09;2.50;;;2.30;;
10063;SDS011;5071;52.360;13.134;2023-08-08T11:46:14;3.27;;;1.87;;
10063;SDS011;5071;52.360;13.134;2023-08-08T11:51:17;3.00;;;1.87;;
10063;SDS011;5071;52.360;13.134;2023-08-08T11:56:20;2.00;;;1.73;;
10063;SDS011;5071;52.360;13.134;2023-08-08T12:01:25;1.73;;;1.40;;
10063;SDS011;5071;52.360;13.134;2023-08-08T12:06:28;1.90;;;1.47;;
10063;SDS011;5071;52.360;13.134;2023-08-08T12:11:33;3.28;;;1.83;;
10063;SDS011;5071;52.360;13.134;2023-08-08T12:16:38;3.10;;;1.63;;
10063;SDS011;5071;52.360;13.134;2023-08-08T12:21:40;2.40;;;1.63;;
10063;SDS011;5071;52.360;13.134;2023-08-08T12:26:42;1.80;;;1.70;;
10063;SDS011;5071;52.360;13.134;2023-08-08T12:31:46;2.33;;;1.70;;
10063;SDS011;5071;52.360;13.134;2023-08-08T12:36:48;2.47;;;1.57;;
10063;SDS011;5071;52.360;13.134;2023-08-08T12:41:50;2.03;;;1.77;;
10063;SDS011;5071;52.360;13.134;2023-08-08T12:46:54;1.90;;;1.67;;
10063;SDS011;5071;52.360;13.134;2023-08-08T12:51:56;2.17;;;1.40;;
10063;SDS011;5071;52.360;13.134;2023-08-08T12:56:58;1.63;;;1.30;;
10063;SDS011;5071;52.360;13.134;2023-08-08T13:02:02;2.25;;;1.55;;
10063;SDS011;5071;52.360;13.134;2023-08-08T13:07:05;2.87;;;1.70;;
10063;SDS011;5071;52.360;13.134;2023-08-08T13:12:07;3.25;;;1.52;;
10063;SDS011;5071;52.360;13.134;2023-08-08T13:17:11;1.92;;;1.40;;
10063;SDS011;5071;52.360;13.134;2023-08-08T13:22:13;2.53;;;1.52;;
10063;SDS011;5071;52.360;13.134;2023-08-08T13:27:15;1.85;;;1.55;;
10063;SDS011;5071;52.360;13.134;2023-08-08T13:32:19;3.55;;;1.48;;
10063;SDS011;5071;52.360;13.134;2023-08-08T13:37:21;4.15;;;1.52;;
10063;SDS011;5071;52.360;13.134;2023-08-08T13:42:23;2.27;;;1.60;;
10063;SDS011;5071;52.360;13.134;2023-08-08T13:47:26;1.90;;;1.30;;
10063;SDS011;5071;52.360;13.134;2023-08-08T13:52:28;2.27;;;1.30;;
10063;SDS011;5071;52.360;13.134;2023-08-08T13:57:30;2.20;;;1.50;;
10063;SDS011;5071;52.360;13.134;2023-08-08T14:02:34;1.13;;;1.10;;
10063;SDS011;5071;52.360;13.134;2023-08-08T14:07:36;2.43;;;1.57;;
10063;SDS011;5071;52.360;13.134;2023-08-08T14:12:38;2.27;;;1.53;;
10063;SDS011;5071;52.360;13.134;2023-08-08T14:17:41;1.38;;;1.13;;
10063;SDS011;5071;52.360;13.134;2023-08-08T14:22:44;1.73;;;1.63;;
10063;SDS011;5071;52.360;13.134;2023-08-08T14:27:46;2.17;;;1.40;;
10063;SDS011;5071;52.360;13.134;2023-08-08T14:32:50;1.50;;;1.40;;
10063;SDS011;5071;52.360;13.134;2023-08-08T14:37:53;4.72;;;1.95;;
10063;SDS011;5071;52.360;13.134;2023-08-08T14:42:55;2.42;;;1.70;;
10063;SDS011;5071;52.360;13.134;2023-08-08T14:47:58;2.30;;;2.10;;
10063;SDS011;5071;52.360;13.134;2023-08-08T14:53:00;2.85;;;1.65;;
10063;SDS011;5071;52.360;13.134;2023-08-08T14:58:02;2.67;;;1.88;;
10063;SDS011;5071;52.360;13.134;2023-08-08T15:03:06;3.05;;;1.83;;
10063;SDS011;5071;52.360;13.134;2023-08-08T15:08:08;3.22;;;1.95;;
10063;SDS011;5071;52.360;13.134;2023-08-08T15:13:10;2.83;;;1.83;;
10063;SDS011;5071;52.360;13.134;2023-08-08T15:18:14;2.65;;;1.90;;
10063;SDS011;5071;52.360;13.134;2023-08-08T15:23:16;2.70;;;1.88;;
10063;SDS011;5071;52.360;13.134;2023-08-08T15:28:18;2.95;;;1.98;;
10063;SDS011;5071;52.360;13.134;2023-08-08T15:33:22;2.78;;;1.85;;
10063;SDS011;5071;52.360;13.134;2023-08-08T15:38:24;3.17;;;1.90;;
10063;SDS011;5071;52.360;13.134;2023-08-08T15:43:26;3.27;;;2.00;;
10063;SDS011;5071;52.360;13.134;2023-08-08T15:48:30;1.23;;;1.10;;
10063;SDS011;5071;52.360;13.134;2023-08-08T15:53:31;2.30;;;1.30;;
10063;SDS011;5071;52.360;13.134;2023-08-08T15:58:33;2.23;;;1.27;;
10063;SDS011;5071;52.360;13.134;2023-08-08T16:03:37;7.23;;;1.10;;
10063;SDS011;5071;52.360;13.134;2023-08-08T16:08:39;1.50;;;0.97;;
10063;SDS011;5071;52.360;13.134;2023-08-08T16:13:41;1.37;;;1.10;;
10063;SDS011;5071;52.360;13.134;2023-08-08T16:18:45;2.87;;;1.40;;
10063;SDS011;5071;52.360;13.134;2023-08-08T16:23:47;3.43;;;1.30;;
10063;SDS011;5071;52.360;13.134;2023-08-08T16:28:49;3.20;;;1.80;;
10063;SDS011;5071;52.360;13.134;2023-08-08T16:33:53;3.13;;;1.47;;
10063;SDS011;5071;52.360;13.134;2023-08-08T16:38:55;1.47;;;1.37;;
10063;SDS011;5071;52.360;13.134;2023-08-08T16:44:17;2.00;;;1.30;;
10063;SDS011;5071;52.360;13.134;2023-08-08T16:49:20;1.83;;;1.00;;
10063;SDS011;5071;52.360;13.134;2023-08-08T16:54:22;2.90;;;1.10;;
10063;SDS011;5071;52.360;13.134;2023-08-08T16:59:24;2.87;;;1.30;;
10063;SDS011;5071;52.360;13.134;2023-08-08T17:04:28;1.63;;;0.97;;
10063;SDS011;5071;52.360;13.134;2023-08-08T17:09:31;2.07;;;1.20;;
10063;SDS011;5071;52.360;13.134;2023-08-08T17:14:33;1.50;;;1.10;;
10063;SDS011;5071;52.360;13.134;2023-08-08T17:19:37;4.73;;;1.60;;
10063;SDS011;5071;52.360;13.134;2023-08-08T17:24:39;1.30;;;0.90;;
10063;SDS011;5071;52.360;13.134;2023-08-08T17:29:41;1.87;;;0.93;;
10063;SDS011;5071;52.360;13.134;2023-08-08T17:34:45;1.37;;;0.93;;
10063;SDS011;5071;52.360;13.134;2023-08-08T17:39:47;3.13;;;1.23;;
10063;SDS011;5071;52.360;13.134;2023-08-08T17:44:49;1.67;;;0.90;;
10063;SDS011;5071;52.360;13.134;2023-08-08T17:49:53;2.17;;;1.10;;
10063;SDS011;5071;52.360;13.134;2023-08-08T17:54:55;1.00;;;0.87;;
10063;SDS011;5071;52.360;13.134;2023-08-08T17:59:57;1.30;;;1.10;;
10063;SDS011;5071;52.360;13.134;2023-08-08T18:05:01;2.53;;;1.13;;
10063;SDS011;5071;52.360;13.134;2023-08-08T18:10:04;2.20;;;0.90;;
10063;SDS011;5071;52.360;13.134;2023-08-08T18:15:07;1.40;;;1.20;;
10063;SDS011;5071;52.360;13.134;2023-08-08T18:20:11;2.50;;;1.20;;
10063;SDS011;5071;52.360;13.134;2023-08-08T18:25:13;2.20;;;1.00;;
10063;SDS011;5071;52.360;13.134;2023-08-08T18:30:15;2.17;;;0.97;;
10063;SDS011;5071;52.360;13.134;2023-08-08T18:35:19;1.40;;;1.00;;
10063;SDS011;5071;52.360;13.134;2023-08-08T18:40:21;1.00;;;0.83;;
10063;SDS011;5071;52.360;13.134;2023-08-08T18:45:23;2.90;;;0.90;;
10063;SDS011;5071;52.360;13.134;2023-08-08T18:50:27;2.83;;;0.93;;
10063;SDS011;5071;52.360;13.134;2023-08-08T18:55:29;1.60;;;0.70;;
10063;SDS011;5071;52.360;13.134;2023-08-08T19:00:31;1.13;;;0.90;;
10063;SDS011;5071;52.360;13.134;2023-08-08T19:05:34;2.57;;;1.13;;
10063;SDS011;5071;52.360;13.134;2023-08-08T19:10:37;1.80;;;1.00;;
10063;SDS011;5071;52.360;13.134;2023-08-08T19:15:38;2.47;;;1.40;;
10063;SDS011;5071;52.360;13.134;2023-08-08T19:20:42;1.37;;;1.00;;
10063;SDS011;5071;52.360;13.134;2023-08-08T19:25:45;2.20;;;1.20;;
10063;SDS011;5071;52.360;13.134;2023-08-08T19:30:47;2.80;;;1.40;;
10063;SDS011;5071;52.360;13.134;2023-08-08T19:35:50;2.80;;;1.20;;
10063;SDS011;5071;52.360;13.134;2023-08-08T19:40:52;2.30;;;1.63;;
10063;SDS011;5071;52.360;13.134;2023-08-08T19:45:54;3.23;;;1.80;;
10063;SDS011;5071;52.360;13.134;2023-08-08T19:50:57;3.13;;;1.70;;
10063;SDS011;5071;52.360;13.134;2023-08-08T19:56:00;2.03;;;1.70;;
10063;SDS011;5071;52.360;13.134;2023-08-08T20:01:02;4.83;;;1.80;;
10063;SDS011;5071;52.360;13.134;2023-08-08T20:06:06;4.07;;;2.27;;
10063;SDS011;5071;52.360;13.134;2023-08-08T20:11:08;2.73;;;1.80;;
10063;SDS011;5071;52.360;13.134;2023-08-08T20:16:10;2.00;;;1.43;;
10063;SDS011;5071;52.360;13.134;2023-08-08T20:21:13;2.47;;;1.70;;
10063;SDS011;5071;52.360;13.134;2023-08-08T20:26:15;4.03;;;1.80;;
10063;SDS011;5071;52.360;13.134;2023-08-08T20:31:17;2.30;;;1.80;;
10063;SDS011;5071;52.360;13.134;2023-08-08T20:36:20;2.73;;;1.70;;
10063;SDS011;5071;52.360;13.134;2023-08-08T20:41:22;3.43;;;1.80;;
10063;SDS011;5071;52.360;13.134;2023-08-08T20:46:24;4.23;;;1.97;;
10063;SDS011;5071;52.360;13.134;2023-08-08T20:51:27;2.23;;;1.80;;
10063;SDS011;5071;52.360;13.134;2023-08-08T20:56:29;3.37;;;1.80;;
10063;SDS011;5071;52.360;13.134;2023-08-08T21:01:32;3.77;;;1.93;;
10063;SDS011;5071;52.360;13.134;2023-08-08T21:06:35;3.10;;;1.97;;
10063;SDS011;5071;52.360;13.134;2023-08-08T21:11:37;3.50;;;1.80;;
10063;SDS011;5071;52.360;13.134;2023-08-08T21:16:39;4.37;;;2.00;;
10063;SDS011;5071;52.360;13.134;2023-08-08T21:21:42;4.70;;;2.00;;
10063;SDS011;5071;52.360;13.134;2023-08-08T21:26:45;2.00;;;1.80;;
10063;SDS011;5071;52.360;13.134;2023-08-08T21:31:46;1.90;;;1.50;;
10063;SDS011;5071;52.360;13.134;2023-08-08T21:36:49;1.83;;;1.63;;
10063;SDS011;5071;52.360;13.134;2023-08-08T21:41:52;1.93;;;1.40;;
10063;SDS011;5071;52.360;13.134;2023-08-08T21:46:54;2.20;;;1.30;;
10063;SDS011;5071;52.360;13.134;2023-08-08T21:51:57;2.33;;;1.80;;
10063;SDS011;5071;52.360;13.134;2023-08-08T21:56:59;2.73;;;1.50;;
10063;SDS011;5071;52.360;13.134;2023-08-08T22:02:02;1.40;;;1.30;;
10063;SDS011;5071;52.360;13.134;2023-08-08T22:07:06;2.10;;;1.70;;
10063;SDS011;5071;52.360;13.134;2023-08-08T22:12:08;2.20;;;1.50;;
10063;SDS011;5071;52.360;13.134;2023-08-08T22:17:09;3.57;;;1.70;;
10063;SDS011;5071;52.360;13.134;2023-08-08T22:22:13;1.60;;;1.50;;
10063;SDS011;5071;52.360;13.134;2023-08-08T22:27:15;4.00;;;1.67;;
10063;SDS011;5071;52.360;13.134;2023-08-08T22:32:17;3.67;;;1.40;;
10063;SDS011;5071;52.360;13.134;2023-08-08T22:37:20;2.50;;;1.50;;
10063;SDS011;5071;52.360;13.134;2023-08-08T22:42:23;1.77;;;1.50;;
10063;SDS011;5071;52.360;13.134;2023-08-08T22:47:25;1.23;;;1.13;;
10063;SDS011;5071;52.360;13.134;2023-08-08T22:52:29;2.37;;;1.27;;
10063;SDS011;5071;52.360;13.134;2023-08-08T22:57:31;1.30;;;1.20;;
10063;SDS011;5071;52.360;13.134;2023-08-08T23:02:33;1.70;;;1.27;;
10063;SDS011;5071;52.360;13.134;2023-08-08T23:07:37;1.97;;;1.40;;
10063;SDS011;5071;52.360;13.134;2023-08-08T23:12:39;2.13;;;1.33;;
10063;SDS011;5071;52.360;13.134;2023-08-08T23:17:42;2.47;;;1.60;;
10063;SDS011;5071;52.360;13.134;2023-08-08T23:22:45;3.33;;;1.60;;
10063;SDS011;5071;52.360;13.134;2023-08-08T23:27:47;2.50;;;1.30;;
10063;SDS011;5071;52.360;13.134;2023-08-08T23:32:49;2.27;;;1.47;;
10063;SDS011;5071;52.360;13.134;2023-08-08T23:37:56;2.67;;;1.67;;
10063;SDS011;5071;52.360;13.134;2023-08-08T23:42:58;3.43;;;1.40;;
10063;SDS011;5071;52.360;13.134;2023-08-08T23:48:00;3.37;;;1.57;;
10063;SDS011;5071;52.360;13.134;2023-08-08T23:53:04;2.90;;;1.37;;
10063;SDS011;5071;52.360;13.134;2023-08-08T23:58:08;4.47;;;1.50;;
